Back to top

Riverton, WY weather

Riverton Regional Airport, Riverton, WY: 6/04/2020 02:53
Visibility10 statute milesclear sky
View 7-Day Forecast
Area Summary
Sky/CloudsSky Clear
Weather [last 24 hours]None [rain began 13:06 ended 13:20; rain began 14:04 ended 14:26 ]
Pressure29.95 in.Hg (1014 hPa)
3-hour Pressure Tendency0.03543 in.Hg (1.2 hPa) Steady or increasing, then decreasing; or decreasing then decreasing more rapidly
Dew Point39 °F (3.9 °C)
Relative Humidity47.4 %
Last 24-Hour Precip.Trace
Reading TimePrecipitation
6-hr ending 6/3@17:53Trace
Temperature59 °F (15 °C)red thermometer
Reading TimeMinimum to Maximum Temperature
6-hr ending 6/3@23:5357 °F to 77 °F (13.9 °C to 25 °C)
6-hr ending 6/3@17:5369.1 °F to 80.1 °F (20.6 °C to 26.7 °C)
6-hr ending 6/3@11:5357.9 °F to 75.9 °F (14.4 °C to 24.4 °C)
6-hr ending 6/3@05:5360.1 °F to 66.9 °F (15.6 °C to 19.4 °C)
24-hr ending 6/4@00:5355.9 °F to 80.1 °F (13.3 °C to 26.7 °C)
Wind5.75 MPH (5 KT) green arrow pointing 225 degrees
Wind FromSouthwest (230 Degrees)
Rolling 24-hr Peak Wind46 MPH (40 KT) on 6/3@14:03
Rolling 24-hr Peak Wind FromSouthwest (230 Degrees)
Twilight Begins04:59Sunshine Yesterday
Sunrise05:34N/A
Sunset20:51
Twilight Ends21:26
METARKRIW 040853Z AUTO 23005KT 10SM CLR 15/04 A2995 RMK AO2 SLP078 T01500039 58012
Tags: